• Join FlightAware (Why Join?)
  • Login
  • US Flag 
11:03PM EDT


 

Airport Tracker/Info


-or-


 

Live Flight TrackerFlight Track Log ✈ N588AC ✈ 27-Jan-2014 ✈ KNEW - KBCB

Flight Track Log - Related Links

Times and Time Zones

All times are in EST time to prevent confusion due to time zone crossing. See the N588AC flight status page for this flight to view local times or setup timezone preferences in your user account.

Time Position Orientation Groundspeed Altitude Reporting Facility
EST Latitude Longitude Course Direction KTS MPH feet Rate Location/Type
03:01PM 30.0589 -90.0294 North 194 223 600  Level Houston Center
03:03PM 30.1672 -90.0153 North 255 293 2,000 720 Climbing Houston Center
03:03PM 30.1719 -90.0142 11° North 233 268 2,000 1,260 Level Houston Center
03:04PM 30.2331 -89.9797 26° Northeast 247 284 3,600 2,400 Climbing Houston Center
03:05PM 30.3200 -89.9578 12° North 260 299 7,000 3,000 Climbing Houston Center
03:06PM 30.3989 -89.9378 12° North 281 323 9,900 2,760 Climbing Houston Center
03:07PM 30.4575 -89.8756 42° Northeast 301 346 12,800 2,400 Climbing Houston Center
03:08PM 30.4986 -89.7897 61° Northeast 300 345 14,900 1,200 Climbing Houston Center
03:09PM 30.5475 -89.6869 61° Northeast 352 405 15,400 960 Climbing Houston Center
03:10PM 30.6200 -89.6017 45° Northeast 369 425 16,900 1,320 Climbing Houston Center
03:11PM 30.7000 -89.5069 46° Northeast 366 421 18,200 1,260 Climbing Houston Center
03:12PM 30.7656 -89.4306 45° Northeast 373 429 19,600 1,560 Climbing Houston Center
03:13PM 30.8506 -89.3281 46° Northeast 369 425 21,500 1,680 Climbing Houston Center
03:14PM 30.9206 -89.2442 46° Northeast 365 420 23,100 1,620 Climbing Houston Center
03:15PM 30.9897 -89.1603 46° Northeast 363 418 24,900 1,740 Climbing Houston Center
03:16PM 31.0586 -89.0761 46° Northeast 362 417 26,700 1,680 Climbing Houston Center
03:17PM 31.1267 -88.9917 47° Northeast 360 414 28,400 1,380 Climbing Houston Center
03:18PM 31.2069 -88.8953 46° Northeast 368 423 29,600 1,080 Climbing Houston Center
03:19PM 31.2825 -88.8047 46° Northeast 383 441 30,700 960 Climbing Houston Center
03:20PM 31.3614 -88.7094 46° Northeast 399 459 31,700 1,020 Climbing Houston Center
03:22PM 31.5061 -88.5372 45° Northeast 392 451 33,600 1,020 Climbing Atlanta Center
03:23PM 31.5847 -88.4414 46° Northeast 397 457 34,600 960 Climbing Atlanta Center
03:24PM 31.6653 -88.3453 45° Northeast 403 464 35,600 960 Climbing Atlanta Center
03:25PM 31.7417 -88.2486 47° Northeast 403 464 36,600 660 Climbing Atlanta Center
03:26PM 31.8222 -88.1497 46° Northeast 408 470 37,000 180 Climbing Atlanta Center
03:27PM 31.9050 -88.0461 47° Northeast 418 481 37,000  Level Atlanta Center
03:28PM 31.9919 -87.9397 46° Northeast 431 496 37,000  Level Atlanta Center
03:29PM 32.0808 -87.8308 46° Northeast 442 509 37,000  Level Atlanta Center
03:30PM 32.1697 -87.7169 47° Northeast 454 522 37,000  Level Atlanta Center
03:31PM 32.2564 -87.6075 47° Northeast 454 522 37,000  Level Atlanta Center
03:32PM 32.3472 -87.4981 45° Northeast 459 528 37,000  Level Atlanta Center
03:33PM 32.4381 -87.3858 46° Northeast 459 528 37,000  Level Atlanta Center
03:34PM 32.5247 -87.2661 49° Northeast 469 540 37,000  Level Atlanta Center
03:35PM 32.6131 -87.1533 47° Northeast 469 540 37,000  Level Atlanta Center
03:36PM 32.6994 -87.0403 48° Northeast 469 540 37,000  Level Atlanta Center
03:37PM 32.7878 -86.9272 47° Northeast 464 534 37,000  Level Atlanta Center
03:38PM 32.8758 -86.8139 47° Northeast 464 534 37,000  Level Atlanta Center
03:39PM 32.9661 -86.7003 47° Northeast 464 534 37,000 -60 Level Atlanta Center
03:40PM 33.0564 -86.5817 48° Northeast 470 541 36,900 -300 Descending Atlanta Center
03:41PM 33.1464 -86.4628 48° Northeast 470 541 36,500 -420 Descending Atlanta Center
03:42PM 33.2342 -86.3483 47° Northeast 470 541 36,100 -300 Descending Atlanta Center
03:43PM 33.3239 -86.2364 46° Northeast 470 541 36,000 -60 Descending Atlanta Center
03:44PM 33.4094 -86.1192 49° Northeast 465 535 36,000  Level Atlanta Center
03:45PM 33.4989 -86.0067 46° Northeast 465 535 36,000  Level Atlanta Center
03:46PM 33.5672 -85.9136 49° Northeast 465 535 36,000  Level Atlanta Center
03:47PM 33.6628 -85.7958 46° Northeast 459 528 36,000  Level Atlanta Center
03:48PM 33.7478 -85.6803 48° Northeast 459 528 36,000  Level Atlanta Center
03:49PM 33.8328 -85.5692 47° Northeast 459 528 36,000  Level Atlanta Center
03:50PM 33.9281 -85.4433 48° Northeast 464 534 36,000  Level Atlanta Center
03:51PM 34.0131 -85.3269 49° Northeast 459 528 36,000  Level Atlanta Center
03:52PM 34.0997 -85.2103 48° Northeast 459 528 36,000  Level Atlanta Center
03:53PM 34.1864 -85.0961 47° Northeast 464 534 36,000  Level Atlanta Center
03:54PM 34.2708 -84.9764 49° Northeast 464 534 36,000  Level Atlanta Center
03:55PM 34.3531 -84.8539 51° Northeast 464 534 36,000  Level Atlanta Center
03:56PM 34.4372 -84.7339 50° Northeast 464 534 36,000  Level Atlanta Center
03:57PM 34.5108 -84.6261 50° Northeast 459 528 36,000  Level Atlanta Center
03:58PM 34.5947 -84.5031 50° Northeast 459 528 36,000  Level Atlanta Center
03:59PM 34.6786 -84.3875 49° Northeast 464 534 36,000  Level Atlanta Center
04:00PM 34.7603 -84.2639 51° Northeast 464 534 36,000  Level Atlanta Center
04:01PM 34.8503 -84.1325 50° Northeast 464 534 36,000  Level Atlanta Center
04:02PM 34.9339 -84.0108 50° Northeast 459 528 36,000  Level Atlanta Center
04:03PM 35.0172 -83.8892 50° Northeast 459 528 36,000  Level Atlanta Center
04:04PM 35.1003 -83.7672 50° Northeast 459 528 36,000  Level Atlanta Center
04:05PM 35.1836 -83.6422 51° Northeast 459 528 36,000  Level Atlanta Center
04:06PM 35.2706 -83.5172 50° Northeast 465 535 36,000  Level Atlanta Center
04:07PM 35.3536 -83.3969 50° Northeast 471 542 36,000  Level Atlanta Center
04:08PM 35.4383 -83.2689 51° Northeast 471 542 36,000 -60 Level Atlanta Center
04:09PM 35.5128 -83.1533 52° Northeast 471 542 35,900 -180 Descending Atlanta Center
04:10PM 35.6033 -83.0144 51° Northeast 471 542 35,700 -360 Descending Atlanta Center
04:11PM 35.6817 -82.8958 51° Northeast 481 554 35,200 -360 Descending Atlanta Center
04:12PM 35.7700 -82.7667 50° Northeast 486 559 35,000 -300 Descending Atlanta Center
04:13PM 35.8564 -82.6372 51° Northeast 486 559 34,600 -600 Descending Atlanta Center
04:14PM 35.9403 -82.5025 52° Northeast 486 559 33,900 -780 Descending Atlanta Center
04:15PM 36.0239 -82.3700 52° Northeast 491 565 33,100 -840 Descending Atlanta Center
04:16PM 36.1178 -82.2267 51° Northeast 491 565 32,300 -840 Descending Atlanta Center
04:17PM 36.1992 -82.0936 53° Northeast 491 565 31,500 -840 Descending Atlanta Center
04:18PM 36.2661 -81.9736 55° Northeast 481 554 30,700 -1,200 Descending Atlanta Center
04:19PM 36.3575 -81.8319 51° Northeast 481 554 29,200 -1,620 Descending Atlanta Center
04:20PM 36.4406 -81.6981 52° Northeast 481 554 27,500 -1,560 Descending Atlanta Center
04:21PM 36.5111 -81.5797 53° Northeast 481 554 26,100 -1,800 Descending Atlanta Center
04:22PM 36.5958 -81.4350 54° Northeast 476 548 23,900 -2,460 Descending Atlanta Center
04:23PM 36.6661 -81.3161 54° Northeast 453 521 21,200 -2,760 Descending Atlanta Center
04:24PM 36.7386 -81.1997 52° Northeast 435 501 18,400 -2,580 Descending Atlanta Center
04:25PM 36.8025 -81.0833 56° Northeast 414 476 16,100 -2,340 Descending Atlanta Center
04:26PM 36.8686 -80.9719 53° Northeast 408 470 13,800 -2,280 Descending Atlanta Center
04:27PM 36.9203 -80.8711 57° Northeast 396 456 11,600 -2,280 Descending Atlanta Center
04:28PM 36.9611 -80.7581 66° East 371 427 9,300 -2,340 Descending Atlanta Center
04:30PM 37.0732 -80.6225 53° Northeast  Level FlightAware Approximate